Time;durP1;ratioP1;P1;durP2;ratioP2;P2;SDS_P1;SDS_P2;PMS_P1;PMS_P2;Temp;Humidity;BMP_temperature;BMP_pressure;BME280_temperature;BME280_humidity;BME280_pressure;Samples;Min_cycle;Max_cycle;Signal;HPM_P1;HPM_P2
2023/11/16 00:01:11;;;;;;;8.17;2.70;;;;;;;;;;5033972;28;20426;-80
2023/11/16 00:03:37;;;;;;;9.43;2.43;;;;;;;;;;5033924;28;20478;-80
2023/11/16 00:06:03;;;;;;;9.07;2.87;;;;;;;;;;5033900;28;20415;-79
2023/11/16 00:08:29;;;;;;;11.93;3.27;;;;;;;;;;5033602;28;20437;-79
2023/11/16 00:10:56;;;;;;;11.40;3.40;;;;;;;;;;5024551;28;20448;-81
2023/11/16 00:13:24;;;;;;;14.63;3.70;;;;;;;;;;5013588;28;20474;-80
2023/11/16 00:15:53;;;;;;;10.77;2.97;;;;;;;;;;5013797;28;20514;-80
2023/11/16 00:18:19;;;;;;;12.63;3.23;;;;;;;;;;5014722;28;20451;-81
2023/11/16 00:20:45;;;;;;;14.00;3.33;;;;;;;;;;5014027;28;20491;-79
2023/11/16 00:23:11;;;;;;;7.10;3.60;;;;;;;;;;5013960;28;20672;-81
2023/11/16 00:25:37;;;;;;;7.87;2.87;;;;;;;;;;5024751;28;20458;-81
2023/11/16 00:28:04;;;;;;;7.30;2.80;;;;;;;;;;5033148;28;20936;-79
2023/11/16 00:30:30;;;;;;;8.80;3.57;;;;;;;;;;5032701;28;20512;-81
2023/11/16 00:32:56;;;;;;;5.57;2.93;;;;;;;;;;5033482;28;20473;-81
2023/11/16 00:35:22;;;;;;;7.30;2.30;;;;;;;;;;5033376;28;20409;-81
2023/11/16 00:37:52;;;;;;;7.70;2.30;;;;;;;;;;5032036;28;20849;-80
2023/11/16 00:40:18;;;;;;;7.10;1.60;;;;;;;;;;5033392;28;20426;-81
2023/11/16 00:42:44;;;;;;;4.97;2.10;;;;;;;;;;5031780;28;20485;-80
2023/11/16 00:45:10;;;;;;;7.97;2.50;;;;;;;;;;5033340;28;20487;-79
2023/11/16 00:47:39;;;;;;;6.30;1.93;;;;;;;;;;5033173;28;20438;-80
2023/11/16 00:50:07;;;;;;;6.97;3.07;;;;;;;;;;5033093;28;20426;-80
2023/11/16 00:52:33;;;;;;;6.40;2.53;;;;;;;;;;5032982;28;20459;-80
2023/11/16 00:55:00;;;;;;;9.53;3.67;;;;;;;;;;5033092;28;20455;-80
2023/11/16 00:57:26;;;;;;;5.53;2.40;;;;;;;;;;5032985;28;20494;-81
2023/11/16 00:59:51;;;;;;;10.17;3.07;;;;;;;;;;5032780;28;20493;-82
2023/11/16 01:02:17;;;;;;;11.10;3.73;;;;;;;;;;5031756;28;20593;-79
2023/11/16 01:04:43;;;;;;;5.10;2.53;;;;;;;;;;5032957;28;20278;-82
2023/11/16 01:07:11;;;;;;;10.77;3.00;;;;;;;;;;5033094;28;20452;-81
2023/11/16 01:09:37;;;;;;;7.63;2.73;;;;;;;;;;5032966;28;20428;-82
2023/11/16 01:12:03;;;;;;;6.90;2.43;;;;;;;;;;5032677;28;20508;-82
2023/11/16 01:14:29;;;;;;;7.93;1.93;;;;;;;;;;4992130;28;20449;-82
2023/11/16 01:17:03;;;;;;;14.67;3.57;;;;;;;;;;5032939;28;20422;-81
2023/11/16 01:19:29;;;;;;;8.87;3.23;;;;;;;;;;5032905;28;20430;-80
2023/11/16 01:21:55;;;;;;;6.80;2.70;;;;;;;;;;5024217;28;20518;-79
2023/11/16 01:24:24;;;;;;;6.73;2.40;;;;;;;;;;5017499;28;20577;-80
2023/11/16 01:26:55;;;;;;;7.37;2.30;;;;;;;;;;5022037;28;20426;-80
2023/11/16 01:29:21;;;;;;;7.13;2.67;;;;;;;;;;5032398;28;20423;-80
2023/11/16 01:31:53;;;;;;;6.00;2.63;;;;;;;;;;5032482;28;20544;-78
2023/11/16 01:34:19;;;;;;;10.67;2.90;;;;;;;;;;5024482;28;20486;-80
2023/11/16 01:36:45;;;;;;;9.63;2.13;;;;;;;;;;5013029;28;20509;-79
2023/11/16 01:39:11;;;;;;;10.73;2.57;;;;;;;;;;5013051;28;20419;-79
2023/11/16 01:41:36;;;;;;;6.80;3.00;;;;;;;;;;5013330;28;20601;-79
2023/11/16 01:44:03;;;;;;;4.50;1.77;;;;;;;;;;5016494;28;20212;-79
2023/11/16 01:46:31;;;;;;;11.20;2.00;;;;;;;;;;5016622;28;20244;-78
2023/11/16 01:48:57;;;;;;;8.93;3.03;;;;;;;;;;5015585;28;20521;-79
2023/11/16 01:51:24;;;;;;;8.67;2.77;;;;;;;;;;5016799;28;20420;-79
2023/11/16 01:53:54;;;;;;;10.53;3.07;;;;;;;;;;5016747;28;20498;-79
2023/11/16 01:56:20;;;;;;;9.53;2.10;;;;;;;;;;5016763;28;20873;-80
2023/11/16 01:58:50;;;;;;;8.53;2.73;;;;;;;;;;5016267;28;20476;-78
2023/11/16 02:01:17;;;;;;;7.13;2.17;;;;;;;;;;5022504;28;20825;-79
2023/11/16 02:03:46;;;;;;;3.70;1.60;;;;;;;;;;5036391;28;20797;-80
2023/11/16 02:06:12;;;;;;;8.40;1.80;;;;;;;;;;5036304;28;20765;-80
2023/11/16 02:08:39;;;;;;;8.13;2.40;;;;;;;;;;5036269;28;20441;-80
2023/11/16 02:11:05;;;;;;;9.67;2.90;;;;;;;;;;5036311;28;20423;-80
2023/11/16 02:13:30;;;;;;;8.30;2.40;;;;;;;;;;5035690;28;20568;-79
2023/11/16 02:15:57;;;;;;;4.53;1.93;;;;;;;;;;5036136;28;20467;-80
2023/11/16 02:18:24;;;;;;;3.97;1.83;;;;;;;;;;5035391;28;20552;-81
2023/11/16 02:20:53;;;;;;;6.90;2.17;;;;;;;;;;5021422;28;20460;-79
2023/11/16 02:23:19;;;;;;;7.20;2.03;;;;;;;;;;5035808;28;20415;-80
2023/11/16 02:25:46;;;;;;;5.17;1.60;;;;;;;;;;5021759;28;20415;-80
2023/11/16 02:28:12;;;;;;;6.47;2.10;;;;;;;;;;5015699;28;20950;-79
2023/11/16 02:30:38;;;;;;;4.27;1.13;;;;;;;;;;5030922;28;20520;-79
2023/11/16 02:33:04;;;;;;;12.37;2.80;;;;;;;;;;5035791;28;21001;-79
2023/11/16 02:35:31;;;;;;;6.53;1.67;;;;;;;;;;5035761;28;20441;-82
2023/11/16 02:37:57;;;;;;;4.70;1.77;;;;;;;;;;5035679;28;20516;-82
2023/11/16 02:40:24;;;;;;;5.17;1.70;;;;;;;;;;5035624;28;20419;-79
2023/11/16 02:42:52;;;;;;;6.40;1.60;;;;;;;;;;5035288;28;20868;-80
2023/11/16 02:45:17;;;;;;;6.87;1.57;;;;;;;;;;5035674;28;20452;-77
2023/11/16 02:47:43;;;;;;;5.37;2.30;;;;;;;;;;5035497;28;21025;-79
2023/11/16 02:50:09;;;;;;;3.63;1.50;;;;;;;;;;5035563;28;20474;-79
2023/11/16 02:52:36;;;;;;;5.47;1.37;;;;;;;;;;5035415;28;20490;-79
2023/11/16 02:55:02;;;;;;;5.83;1.40;;;;;;;;;;5034843;28;20464;-80
2023/11/16 02:57:29;;;;;;;6.63;1.23;;;;;;;;;;5035005;28;20412;-78
2023/11/16 02:59:55;;;;;;;2.97;0.87;;;;;;;;;;5035357;28;20402;-81
2023/11/16 03:02:21;;;;;;;3.63;0.90;;;;;;;;;;5035314;28;20413;-79
2023/11/16 03:04:47;;;;;;;3.77;1.10;;;;;;;;;;5035309;28;20500;-79
2023/11/16 03:07:13;;;;;;;4.10;0.70;;;;;;;;;;5035195;28;20992;-78
2023/11/16 03:09:39;;;;;;;5.20;0.40;;;;;;;;;;5035106;28;20527;-79
2023/11/16 03:12:06;;;;;;;5.10;0.50;;;;;;;;;;5034608;28;20520;-81
2023/11/16 03:14:32;;;;;;;3.97;0.77;;;;;;;;;;5035150;28;20418;-80
2023/11/16 03:16:58;;;;;;;5.50;0.60;;;;;;;;;;5035048;28;20411;-80
2023/11/16 03:19:25;;;;;;;9.27;0.60;;;;;;;;;;5034856;28;20468;-81
2023/11/16 03:21:51;;;;;;;5.00;0.30;;;;;;;;;;5034966;28;20403;-78
2023/11/16 03:24:17;;;;;;;2.17;0.30;;;;;;;;;;5034807;28;20463;-79
2023/11/16 03:26:44;;;;;;;3.57;0.30;;;;;;;;;;5034854;28;20417;-76
2023/11/16 03:29:09;;;;;;;3.93;0.37;;;;;;;;;;5034486;28;20625;-80
2023/11/16 03:31:35;;;;;;;0.97;0.20;;;;;;;;;;5034530;28;20516;-81
2023/11/16 03:34:07;;;;;;;2.90;0.40;;;;;;;;;;5034504;28;20216;-77
2023/11/16 03:36:33;;;;;;;2.63;0.30;;;;;;;;;;5034587;28;20417;-80
2023/11/16 03:38:59;;;;;;;2.17;0.30;;;;;;;;;;5033307;28;20429;-81
2023/11/16 03:41:26;;;;;;;2.70;1.00;;;;;;;;;;5034569;28;20401;-81
2023/11/16 03:43:52;;;;;;;1.47;0.20;;;;;;;;;;5034172;28;20499;-82
2023/11/16 03:46:17;;;;;;;1.73;0.40;;;;;;;;;;5040808;28;20561;-81
2023/11/16 03:48:43;;;;;;;0.97;0.20;;;;;;;;;;5054207;28;20433;-83
2023/11/16 03:51:12;;;;;;;0.90;0.20;;;;;;;;;;5054244;28;20414;-80
2023/11/16 03:53:39;;;;;;;2.23;0.50;;;;;;;;;;5054109;28;20543;-79
2023/11/16 03:56:05;;;;;;;3.50;0.40;;;;;;;;;;5054110;28;20406;-81
2023/11/16 03:58:31;;;;;;;1.27;0.30;;;;;;;;;;5069193;28;20432;-80
2023/11/16 04:00:57;;;;;;;2.03;0.50;;;;;;;;;;5054014;28;20414;-79
2023/11/16 04:03:23;;;;;;;5.47;0.63;;;;;;;;;;5054004;28;20456;-78
2023/11/16 04:05:52;;;;;;;5.07;0.30;;;;;;;;;;5053076;28;20416;-79
2023/11/16 04:08:18;;;;;;;1.00;0.20;;;;;;;;;;5054257;28;20924;-79
2023/11/16 04:10:45;;;;;;;0.83;0.30;;;;;;;;;;5053976;28;20448;-81
2023/11/16 04:13:11;;;;;;;1.50;0.20;;;;;;;;;;5053434;28;20214;-79
2023/11/16 04:15:38;;;;;;;5.90;0.63;;;;;;;;;;5053708;28;20423;-80
2023/11/16 04:18:05;;;;;;;7.53;0.60;;;;;;;;;;5053706;28;20424;-79
2023/11/16 04:20:31;;;;;;;1.07;0.53;;;;;;;;;;5053672;28;20491;-82
2023/11/16 04:22:57;;;;;;;0.90;0.27;;;;;;;;;;5053626;28;20462;-79
2023/11/16 04:25:25;;;;;;;2.10;0.30;;;;;;;;;;5053663;28;20407;-80
2023/11/16 04:27:59;;;;;;;7.57;0.50;;;;;;;;;;5053265;28;20423;-81
2023/11/16 04:30:28;;;;;;;0.93;0.30;;;;;;;;;;5053386;28;20448;-76
2023/11/16 04:32:57;;;;;;;0.57;0.20;;;;;;;;;;5053586;28;20479;-77
2023/11/16 04:35:24;;;;;;;2.80;0.30;;;;;;;;;;5053481;28;20917;-80
2023/11/16 04:37:50;;;;;;;1.93;0.30;;;;;;;;;;5053486;28;20500;-79
2023/11/16 04:40:16;;;;;;;2.00;1.70;;;;;;;;;;5053420;28;20836;-82
2023/11/16 04:42:43;;;;;;;0.97;0.20;;;;;;;;;;5053045;28;20480;-78
2023/11/16 04:45:11;;;;;;;1.37;0.27;;;;;;;;;;5053435;28;20426;-81
2023/11/16 04:47:37;;;;;;;0.80;0.20;;;;;;;;;;5053334;28;20905;-81
2023/11/16 04:50:06;;;;;;;1.33;0.30;;;;;;;;;;5053208;28;20420;-82
2023/11/16 04:52:33;;;;;;;0.83;0.30;;;;;;;;;;5053071;28;20977;-79
2023/11/16 04:54:59;;;;;;;1.50;0.27;;;;;;;;;;5068654;28;20436;-81
2023/11/16 04:57:25;;;;;;;3.60;0.20;;;;;;;;;;5052824;28;20412;-79
2023/11/16 04:59:53;;;;;;;1.30;0.20;;;;;;;;;;5053069;28;20425;-79
2023/11/16 05:02:18;;;;;;;3.00;0.30;;;;;;;;;;5027964;28;20438;-79
2023/11/16 05:04:45;;;;;;;1.90;0.20;;;;;;;;;;5033175;28;20416;-79
2023/11/16 05:07:12;;;;;;;1.00;0.10;;;;;;;;;;5014366;28;20782;-81
2023/11/16 05:09:38;;;;;;;0.63;0.20;;;;;;;;;;5021347;28;20831;-78
2023/11/16 05:12:04;;;;;;;0.83;0.23;;;;;;;;;;5032664;28;20429;-78
2023/11/16 05:14:30;;;;;;;3.70;0.20;;;;;;;;;;4999090;28;20456;-79
2023/11/16 05:16:56;;;;;;;0.50;0.20;;;;;;;;;;5055095;28;20892;-80
2023/11/16 05:19:22;;;;;;;0.40;0.20;;;;;;;;;;5059440;28;20406;-79
2023/11/16 05:21:48;;;;;;;4.43;0.20;;;;;;;;;;5048322;28;20848;-79
2023/11/16 05:24:14;;;;;;;0.80;0.20;;;;;;;;;;5033505;28;20420;-79
2023/11/16 05:26:41;;;;;;;1.80;0.27;;;;;;;;;;5022243;28;20433;-81
2023/11/16 05:29:07;;;;;;;1.13;0.30;;;;;;;;;;5019712;28;20410;-80
2023/11/16 05:31:33;;;;;;;0.97;0.30;;;;;;;;;;5024449;28;20539;-77
2023/11/16 05:33:59;;;;;;;1.60;0.20;;;;;;;;;;5028494;28;20481;-78
2023/11/16 05:36:27;;;;;;;1.33;0.20;;;;;;;;;;5025702;28;20900;-79
2023/11/16 05:38:53;;;;;;;0.60;0.20;;;;;;;;;;5039361;28;20417;-80
2023/11/16 05:41:20;;;;;;;1.13;0.20;;;;;;;;;;5032117;28;20434;-79
2023/11/16 05:43:48;;;;;;;1.17;0.20;;;;;;;;;;5019224;28;20493;-80
2023/11/16 05:46:14;;;;;;;0.70;0.20;;;;;;;;;;5019538;28;20407;-81
2023/11/16 05:48:39;;;;;;;0.63;0.20;;;;;;;;;;5019652;28;20503;-79
2023/11/16 05:51:06;;;;;;;0.90;0.33;;;;;;;;;;5019513;28;20415;-79
2023/11/16 05:53:32;;;;;;;1.00;0.40;;;;;;;;;;5019396;28;20879;-77
2023/11/16 05:55:57;;;;;;;0.90;0.20;;;;;;;;;;5019413;28;20419;-81
2023/11/16 05:58:27;;;;;;;2.57;0.20;;;;;;;;;;5018920;28;20420;-79
2023/11/16 06:00:53;;;;;;;0.47;0.20;;;;;;;;;;5043094;28;20425;-81
2023/11/16 06:03:25;;;;;;;2.03;0.27;;;;;;;;;;5049691;28;20508;-81
2023/11/16 06:05:51;;;;;;;1.80;0.57;;;;;;;;;;5045615;28;20418;-77
2023/11/16 06:08:18;;;;;;;1.23;0.50;;;;;;;;;;5049836;28;20528;-81
2023/11/16 06:10:44;;;;;;;2.00;0.20;;;;;;;;;;5037611;28;20481;-80
2023/11/16 06:13:10;;;;;;;1.30;0.47;;;;;;;;;;5038395;28;20479;-78
2023/11/16 06:15:36;;;;;;;2.97;1.10;;;;;;;;;;5039056;28;20410;-80
2023/11/16 06:18:02;;;;;;;1.43;0.47;;;;;;;;;;5039020;28;20411;-79
2023/11/16 06:20:29;;;;;;;1.13;0.47;;;;;;;;;;5038989;28;20442;-76
2023/11/16 06:22:55;;;;;;;2.43;0.60;;;;;;;;;;5038882;28;20998;-80
2023/11/16 06:25:21;;;;;;;1.90;0.70;;;;;;;;;;5015798;28;20435;-80
2023/11/16 06:27:48;;;;;;;2.20;0.60;;;;;;;;;;5027410;28;20496;-81
2023/11/16 06:30:14;;;;;;;1.90;0.57;;;;;;;;;;5034757;28;20454;-81
2023/11/16 06:32:42;;;;;;;1.20;0.67;;;;;;;;;;5035743;28;20521;-76
2023/11/16 06:35:08;;;;;;;1.73;0.50;;;;;;;;;;5035737;28;20405;-78
2023/11/16 06:37:34;;;;;;;3.30;0.60;;;;;;;;;;5035774;28;20411;-79
2023/11/16 06:40:00;;;;;;;0.90;0.50;;;;;;;;;;5035729;28;20414;-78
2023/11/16 06:42:26;;;;;;;0.97;0.33;;;;;;;;;;5035243;28;20419;-78
2023/11/16 06:44:52;;;;;;;2.80;0.57;;;;;;;;;;5035622;28;20418;-78
2023/11/16 06:47:19;;;;;;;2.60;0.70;;;;;;;;;;5035462;28;20425;-78
2023/11/16 06:49:48;;;;;;;0.80;0.50;;;;;;;;;;5038023;28;20468;-78
2023/11/16 06:52:15;;;;;;;1.67;0.83;;;;;;;;;;5040656;28;20447;-78
2023/11/16 06:54:41;;;;;;;0.70;0.43;;;;;;;;;;5045081;28;20460;-77
2023/11/16 06:57:07;;;;;;;1.30;0.50;;;;;;;;;;5043243;28;20409;-76
2023/11/16 06:59:34;;;;;;;2.53;0.70;;;;;;;;;;5045352;28;20453;-78
2023/11/16 07:02:00;;;;;;;1.00;0.37;;;;;;;;;;5044744;28;20412;-78
2023/11/16 07:04:26;;;;;;;1.30;0.60;;;;;;;;;;5040188;28;20429;-78
2023/11/16 07:06:52;;;;;;;1.90;0.60;;;;;;;;;;5037780;28;20459;-77
2023/11/16 07:09:19;;;;;;;1.67;0.73;;;;;;;;;;5035138;28;20416;-76
2023/11/16 07:11:47;;;;;;;0.90;0.27;;;;;;;;;;5034799;28;20419;-77
2023/11/16 07:14:13;;;;;;;0.80;0.47;;;;;;;;;;5035208;28;20473;-77
2023/11/16 07:16:39;;;;;;;0.77;0.37;;;;;;;;;;5034802;28;20412;-76
2023/11/16 07:19:06;;;;;;;1.70;0.50;;;;;;;;;;5042839;28;20420;-76
2023/11/16 07:21:33;;;;;;;1.00;0.60;;;;;;;;;;5044051;28;20992;-76
2023/11/16 07:23:59;;;;;;;1.57;0.60;;;;;;;;;;5044182;28;20510;-76
2023/11/16 07:26:25;;;;;;;1.20;0.40;;;;;;;;;;5003794;28;20873;-77
2023/11/16 07:28:51;;;;;;;0.93;0.70;;;;;;;;;;5043117;28;20453;-77
2023/11/16 07:31:19;;;;;;;1.90;0.40;;;;;;;;;;5034389;28;20818;-79
2023/11/16 07:33:45;;;;;;;2.50;0.70;;;;;;;;;;5034572;28;20551;-75
2023/11/16 07:36:11;;;;;;;0.67;0.37;;;;;;;;;;5034603;28;20406;-76
2023/11/16 07:38:37;;;;;;;1.93;0.80;;;;;;;;;;5034646;28;20472;-76
2023/11/16 07:41:03;;;;;;;1.47;0.80;;;;;;;;;;5034317;28;20802;-76
2023/11/16 07:43:30;;;;;;;1.80;0.73;;;;;;;;;;5034220;28;20789;-76
2023/11/16 07:45:57;;;;;;;1.40;0.60;;;;;;;;;;5034471;28;20411;-76
2023/11/16 07:48:24;;;;;;;0.97;0.40;;;;;;;;;;5034373;28;20441;-76
2023/11/16 07:50:51;;;;;;;0.70;0.40;;;;;;;;;;5034419;28;20426;-76
2023/11/16 07:53:17;;;;;;;2.37;0.30;;;;;;;;;;5034217;28;20472;-76
2023/11/16 07:55:44;;;;;;;1.27;0.50;;;;;;;;;;5032985;28;20482;-76
2023/11/16 07:58:12;;;;;;;1.77;0.50;;;;;;;;;;5032580;28;20890;-77
2023/11/16 08:00:54;;;;;;;1.40;0.40;;;;;;;;;;5034216;28;20822;-76
2023/11/16 08:06:06;;;;;;;1.37;0.30;;;;;;;;;;5034128;28;20561;-76
2023/11/16 08:08:32;;;;;;;4.90;0.73;;;;;;;;;;5034068;28;20771;-76
2023/11/16 08:10:58;;;;;;;1.90;0.80;;;;;;;;;;5034057;28;20409;-76
2023/11/16 08:13:24;;;;;;;1.47;0.53;;;;;;;;;;5033509;28;20485;-76
2023/11/16 08:15:52;;;;;;;2.07;0.27;;;;;;;;;;5033852;28;20767;-76
2023/11/16 08:18:19;;;;;;;1.03;0.60;;;;;;;;;;5033841;28;20452;-76
2023/11/16 08:20:45;;;;;;;1.20;0.70;;;;;;;;;;5033838;28;20458;-76
2023/11/16 08:23:11;;;;;;;0.70;0.60;;;;;;;;;;5034073;28;20422;-76
2023/11/16 08:25:38;;;;;;;1.03;0.53;;;;;;;;;;5034371;28;20407;-76
2023/11/16 08:28:07;;;;;;;1.13;0.83;;;;;;;;;;5033488;28;20415;-76
2023/11/16 08:30:33;;;;;;;1.00;0.53;;;;;;;;;;5033576;28;20474;-76
2023/11/16 08:33:00;;;;;;;1.90;0.83;;;;;;;;;;5033496;28;20506;-76
2023/11/16 08:35:26;;;;;;;1.17;0.60;;;;;;;;;;5033577;28;20417;-76
2023/11/16 08:37:55;;;;;;;1.03;0.40;;;;;;;;;;5033640;28;20402;-76
2023/11/16 08:40:23;;;;;;;2.30;0.77;;;;;;;;;;5033547;28;20417;-78
2023/11/16 08:42:51;;;;;;;1.30;0.67;;;;;;;;;;5033202;28;20411;-76
2023/11/16 08:45:18;;;;;;;0.90;0.50;;;;;;;;;;5033545;28;20407;-76
2023/11/16 08:47:48;;;;;;;1.33;0.33;;;;;;;;;;5033422;28;20444;-76
2023/11/16 08:50:16;;;;;;;0.97;0.60;;;;;;;;;;5033271;28;20403;-76
2023/11/16 08:52:45;;;;;;;3.07;0.50;;;;;;;;;;5032760;28;20463;-76
2023/11/16 08:55:12;;;;;;;1.17;0.40;;;;;;;;;;5033322;28;20399;-76
2023/11/16 08:57:41;;;;;;;1.07;0.50;;;;;;;;;;5031919;28;20757;-76
2023/11/16 09:02:54;;;;;;;1.73;0.50;;;;;;;;;;5033402;28;20409;-78
2023/11/16 09:05:20;;;;;;;0.60;0.27;;;;;;;;;;5033131;28;20421;-79
2023/11/16 09:07:46;;;;;;;0.53;0.30;;;;;;;;;;5029522;28;20421;-79
2023/11/16 09:10:14;;;;;;;1.60;0.33;;;;;;;;;;5029836;28;20432;-79
2023/11/16 09:12:45;;;;;;;1.37;0.30;;;;;;;;;;5029342;28;20564;-78
2023/11/16 09:15:11;;;;;;;0.80;0.30;;;;;;;;;;5031255;28;20413;-78
2023/11/16 09:17:37;;;;;;;1.23;0.30;;;;;;;;;;5031536;28;20760;-80
2023/11/16 09:20:10;;;;;;;0.77;0.20;;;;;;;;;;5031818;28;20914;-79
2023/11/16 09:22:36;;;;;;;1.53;0.40;;;;;;;;;;5032766;28;20413;-79
2023/11/16 09:25:15;;;;;;;1.33;0.33;;;;;;;;;;5032724;28;20834;-80
2023/11/16 09:27:41;;;;;;;1.40;0.73;;;;;;;;;;5032638;28;20413;-79
2023/11/16 09:30:07;;;;;;;1.00;0.73;;;;;;;;;;5032661;28;20776;-79
2023/11/16 09:32:33;;;;;;;1.03;0.40;;;;;;;;;;5031355;28;20472;-79
2023/11/16 09:34:59;;;;;;;2.23;0.30;;;;;;;;;;5032778;28;20417;-79
2023/11/16 09:37:29;;;;;;;2.40;0.50;;;;;;;;;;5032241;28;20480;-80
2023/11/16 09:39:56;;;;;;;1.73;0.70;;;;;;;;;;5032280;28;20419;-79
2023/11/16 09:42:26;;;;;;;1.03;0.37;;;;;;;;;;5032191;28;20441;-79
2023/11/16 09:44:55;;;;;;;1.00;0.60;;;;;;;;;;5032794;28;20410;-80
2023/11/16 09:47:26;;;;;;;0.93;0.30;;;;;;;;;;5032749;28;20406;-80
2023/11/16 09:49:56;;;;;;;1.17;0.30;;;;;;;;;;5032765;28;20474;-80
2023/11/16 09:52:22;;;;;;;1.30;0.70;;;;;;;;;;5032430;28;20456;-79
2023/11/16 09:54:50;;;;;;;0.93;0.50;;;;;;;;;;5032673;28;20844;-80
2023/11/16 09:57:21;;;;;;;0.77;0.20;;;;;;;;;;5032238;28;20931;-80
2023/11/16 09:59:50;;;;;;;2.43;0.53;;;;;;;;;;5031304;28;20431;-80
2023/11/16 10:02:18;;;;;;;1.10;0.43;;;;;;;;;;5032354;28;20764;-80
2023/11/16 10:04:45;;;;;;;2.37;0.43;;;;;;;;;;5033377;28;20426;-79
2023/11/16 10:07:15;;;;;;;2.10;1.00;;;;;;;;;;5036270;28;20422;-80
2023/11/16 10:09:45;;;;;;;0.80;0.43;;;;;;;;;;5036191;28;20768;-80
2023/11/16 10:12:11;;;;;;;1.40;1.00;;;;;;;;;;5035671;28;20403;-80
2023/11/16 10:14:41;;;;;;;2.63;0.70;;;;;;;;;;5036168;28;20508;-80
2023/11/16 10:17:07;;;;;;;0.90;0.40;;;;;;;;;;5035817;28;20401;-80
2023/11/16 10:19:33;;;;;;;0.70;0.37;;;;;;;;;;5036055;28;20410;-78
2023/11/16 10:21:59;;;;;;;0.70;0.30;;;;;;;;;;5035915;28;20969;-80
2023/11/16 10:24:25;;;;;;;1.23;0.57;;;;;;;;;;5035701;28;20498;-78
2023/11/16 10:26:54;;;;;;;1.70;0.70;;;;;;;;;;5035670;28;20412;-78
2023/11/16 10:29:24;;;;;;;1.93;0.90;;;;;;;;;;5035817;28;20420;-78
2023/11/16 10:31:51;;;;;;;0.83;0.50;;;;;;;;;;5035492;28;20555;-79
2023/11/16 10:34:28;;;;;;;2.73;1.00;;;;;;;;;;5035680;28;20509;-80
2023/11/16 10:36:57;;;;;;;3.40;0.97;;;;;;;;;;5035721;28;20929;-79
2023/11/16 10:39:24;;;;;;;1.20;0.80;;;;;;;;;;5035671;28;20418;-78
2023/11/16 10:41:50;;;;;;;1.00;0.30;;;;;;;;;;5035202;28;20419;-79
2023/11/16 10:44:17;;;;;;;1.53;0.50;;;;;;;;;;5035604;28;20510;-80
2023/11/16 10:46:44;;;;;;;1.30;0.97;;;;;;;;;;5034293;28;20470;-81
2023/11/16 10:49:11;;;;;;;1.53;0.40;;;;;;;;;;5034870;28;20416;-81
2023/11/16 10:51:37;;;;;;;1.73;0.30;;;;;;;;;;5034524;28;20514;-82
2023/11/16 10:54:05;;;;;;;1.53;0.50;;;;;;;;;;5035353;28;20491;-84
2023/11/16 10:56:31;;;;;;;1.13;0.53;;;;;;;;;;5035000;28;20411;-83
2023/11/16 10:58:59;;;;;;;1.63;0.73;;;;;;;;;;5035300;28;20419;-85
2023/11/16 11:01:25;;;;;;;1.83;0.23;;;;;;;;;;5035091;28;20420;-80
2023/11/16 11:03:56;;;;;;;2.40;0.47;;;;;;;;;;5035117;28;20418;-84
2023/11/16 11:06:23;;;;;;;0.80;0.40;;;;;;;;;;5035170;28;20393;-84
2023/11/16 11:08:52;;;;;;;0.73;0.20;;;;;;;;;;5033898;28;20757;-83
2023/11/16 11:11:24;;;;;;;1.33;0.40;;;;;;;;;;5034557;28;20401;-80
2023/11/16 11:13:54;;;;;;;1.40;0.30;;;;;;;;;;5035014;28;20497;-79
2023/11/16 11:16:25;;;;;;;0.50;0.20;;;;;;;;;;5034545;28;20423;-79
2023/11/16 11:18:51;;;;;;;0.80;0.20;;;;;;;;;;5035018;28;20420;-81
2023/11/16 11:21:19;;;;;;;0.70;0.40;;;;;;;;;;5033400;28;20919;-81
2023/11/16 11:23:57;;;;;;;1.70;0.37;;;;;;;;;;5034778;28;20543;-80
2023/11/16 11:26:23;;;;;;;1.00;0.30;;;;;;;;;;5034245;28;20415;-80
2023/11/16 11:28:52;;;;;;;1.90;0.40;;;;;;;;;;5032785;28;20421;-79
2023/11/16 11:31:19;;;;;;;0.90;0.30;;;;;;;;;;5033649;28;20466;-79
2023/11/16 11:33:45;;;;;;;0.60;0.37;;;;;;;;;;5034631;28;20565;-79
2023/11/16 11:36:17;;;;;;;0.90;0.20;;;;;;;;;;5034534;28;20405;-79
2023/11/16 11:38:43;;;;;;;0.50;0.20;;;;;;;;;;5034639;28;20431;-79
2023/11/16 11:41:13;;;;;;;0.90;0.50;;;;;;;;;;5032928;28;20442;-81
2023/11/16 11:43:39;;;;;;;1.40;0.30;;;;;;;;;;5034574;28;20462;-79
2023/11/16 11:46:09;;;;;;;1.20;0.40;;;;;;;;;;5034413;28;20497;-81
2023/11/16 11:48:36;;;;;;;0.93;0.20;;;;;;;;;;5034521;28;20410;-79
2023/11/16 11:51:06;;;;;;;1.17;0.40;;;;;;;;;;5034297;28;20413;-79
2023/11/16 11:53:34;;;;;;;2.30;0.53;;;;;;;;;;5034317;28;20802;-81
2023/11/16 11:56:02;;;;;;;1.70;0.33;;;;;;;;;;5032708;28;20785;-82
2023/11/16 11:58:28;;;;;;;0.43;0.30;;;;;;;;;;5034283;28;20414;-81
2023/11/16 12:00:56;;;;;;;0.90;0.20;;;;;;;;;;5034243;28;20919;-80
2023/11/16 12:03:23;;;;;;;0.70;0.20;;;;;;;;;;5034194;28;20573;-79
2023/11/16 12:05:58;;;;;;;0.83;0.27;;;;;;;;;;5032789;28;20431;-80
2023/11/16 12:08:40;;;;;;;0.90;0.30;;;;;;;;;;5033952;28;20428;-81
2023/11/16 12:11:09;;;;;;;0.77;0.20;;;;;;;;;;5033667;28;20441;-79
2023/11/16 12:13:36;;;;;;;1.00;0.20;;;;;;;;;;5033893;28;20475;-79
2023/11/16 12:16:02;;;;;;;0.90;0.30;;;;;;;;;;5033935;28;20411;-81
2023/11/16 12:18:29;;;;;;;0.67;0.20;;;;;;;;;;5033909;28;20412;-79
2023/11/16 12:20:55;;;;;;;1.07;0.40;;;;;;;;;;5033811;28;20405;-81
2023/11/16 12:23:21;;;;;;;0.97;0.53;;;;;;;;;;5032568;28;20420;-83
2023/11/16 12:25:47;;;;;;;0.60;0.20;;;;;;;;;;5031836;28;20226;-79
2023/11/16 12:28:13;;;;;;;1.57;0.57;;;;;;;;;;5033252;28;20481;-81
2023/11/16 12:30:40;;;;;;;1.03;0.20;;;;;;;;;;5033542;28;20457;-82
2023/11/16 12:33:08;;;;;;;0.57;0.20;;;;;;;;;;5032327;28;20474;-81
2023/11/16 12:35:37;;;;;;;1.67;0.20;;;;;;;;;;5033607;28;20420;-81
2023/11/16 12:38:04;;;;;;;1.07;0.40;;;;;;;;;;5033532;28;20411;-81
2023/11/16 12:40:30;;;;;;;0.47;0.20;;;;;;;;;;5033315;28;20915;-92
2023/11/16 12:42:56;;;;;;;0.50;0.40;;;;;;;;;;5032499;28;20421;-81
2023/11/16 12:45:22;;;;;;;0.53;0.20;;;;;;;;;;5032333;28;20415;-82
2023/11/16 12:47:48;;;;;;;3.83;0.30;;;;;;;;;;5033120;28;20439;-84
2023/11/16 12:50:16;;;;;;;1.23;0.30;;;;;;;;;;5033288;28;20409;-79
2023/11/16 12:52:41;;;;;;;0.73;0.20;;;;;;;;;;5033191;28;20462;-81
2023/11/16 12:55:12;;;;;;;0.40;0.23;;;;;;;;;;5031614;28;20924;-80
2023/11/16 12:57:41;;;;;;;0.40;0.20;;;;;;;;;;5032880;28;20493;-81
2023/11/16 13:00:09;;;;;;;0.50;0.20;;;;;;;;;;5031855;28;20425;-82
2023/11/16 13:02:36;;;;;;;0.50;0.20;;;;;;;;;;5033206;28;20424;-81
2023/11/16 13:05:04;;;;;;;0.40;0.20;;;;;;;;;;5032649;28;20475;-80
2023/11/16 13:07:31;;;;;;;0.50;0.20;;;;;;;;;;5033142;28;20413;-81
2023/11/16 13:09:59;;;;;;;1.00;0.37;;;;;;;;;;5032962;28;20481;-81
2023/11/16 13:12:24;;;;;;;0.40;0.20;;;;;;;;;;5031209;28;20419;-78
2023/11/16 13:14:50;;;;;;;0.40;0.20;;;;;;;;;;5032433;28;20435;-82
2023/11/16 13:17:16;;;;;;;0.57;0.30;;;;;;;;;;5031754;28;20517;-85
2023/11/16 13:19:42;;;;;;;0.50;0.20;;;;;;;;;;5032945;28;20421;-79
2023/11/16 13:22:08;;;;;;;0.90;0.20;;;;;;;;;;5032983;28;21004;-84
2023/11/16 13:24:34;;;;;;;1.50;0.33;;;;;;;;;;5032472;28;20502;-82
2023/11/16 13:27:00;;;;;;;1.13;0.40;;;;;;;;;;5031069;28;20834;-81
2023/11/16 13:29:28;;;;;;;0.40;0.20;;;;;;;;;;5032948;28;20452;-83
2023/11/16 13:31:54;;;;;;;0.60;0.20;;;;;;;;;;5031287;28;20500;-83
2023/11/16 13:34:20;;;;;;;0.40;0.20;;;;;;;;;;5032241;28;20558;-82
2023/11/16 13:36:46;;;;;;;0.53;0.30;;;;;;;;;;5031615;28;20823;-84
2023/11/16 13:39:14;;;;;;;0.70;0.20;;;;;;;;;;5034546;28;20484;-83
2023/11/16 13:41:40;;;;;;;0.60;0.20;;;;;;;;;;5036408;28;20534;-81
2023/11/16 13:44:06;;;;;;;1.23;0.47;;;;;;;;;;5036616;28;20459;-81
2023/11/16 13:46:32;;;;;;;1.00;0.20;;;;;;;;;;5034129;28;20824;-81
2023/11/16 13:48:58;;;;;;;0.60;0.20;;;;;;;;;;5028279;28;20444;-79
2023/11/16 13:51:25;;;;;;;0.70;0.30;;;;;;;;;;5035192;28;20419;-82
2023/11/16 13:53:51;;;;;;;0.93;0.40;;;;;;;;;;5036072;28;20530;-80
2023/11/16 13:56:17;;;;;;;1.90;0.20;;;;;;;;;;5036175;28;20513;-80
2023/11/16 13:58:43;;;;;;;0.30;0.20;;;;;;;;;;5036072;28;20463;-81
2023/11/16 14:01:09;;;;;;;0.90;0.30;;;;;;;;;;5035693;28;20410;-80
2023/11/16 14:03:35;;;;;;;0.90;0.20;;;;;;;;;;5036456;28;20468;-80
2023/11/16 14:06:05;;;;;;;1.03;0.30;;;;;;;;;;5036236;28;20449;-80
2023/11/16 14:08:33;;;;;;;0.30;0.20;;;;;;;;;;5036302;28;20420;-82
2023/11/16 14:10:59;;;;;;;1.53;0.50;;;;;;;;;;5035940;28;20423;-80
2023/11/16 14:13:26;;;;;;;2.67;0.20;;;;;;;;;;5035516;28;20487;-81
2023/11/16 14:15:52;;;;;;;0.80;0.20;;;;;;;;;;5027204;28;20422;-80
2023/11/16 14:18:18;;;;;;;0.50;0.20;;;;;;;;;;5035916;28;20913;-81
2023/11/16 14:20:44;;;;;;;0.47;0.20;;;;;;;;;;5035852;28;20406;-80
2023/11/16 14:23:10;;;;;;;1.97;0.20;;;;;;;;;;5035728;28;20420;-82
2023/11/16 14:25:36;;;;;;;2.60;0.23;;;;;;;;;;5035375;28;20932;-82
2023/11/16 14:28:02;;;;;;;0.50;0.20;;;;;;;;;;5035681;28;20433;-81
2023/11/16 14:30:28;;;;;;;1.13;0.40;;;;;;;;;;5035307;28;20448;-81
2023/11/16 14:32:54;;;;;;;0.40;0.40;;;;;;;;;;5035200;28;20854;-80
2023/11/16 14:35:21;;;;;;;0.70;0.20;;;;;;;;;;5034693;28;20417;-80
2023/11/16 14:37:47;;;;;;;1.53;0.30;;;;;;;;;;5035301;28;20411;-81
2023/11/16 14:40:13;;;;;;;0.80;0.20;;;;;;;;;;5035008;28;20512;-80
2023/11/16 14:42:39;;;;;;;1.33;0.23;;;;;;;;;;5035286;28;20885;-80
2023/11/16 14:45:06;;;;;;;1.20;0.70;;;;;;;;;;5031137;28;20424;-83
2023/11/16 14:47:32;;;;;;;0.93;0.30;;;;;;;;;;5032785;28;20425;-85